Time;durP1;ratioP1;P1;durP2;ratioP2;P2;SDS_P1;SDS_P2;PMS_P1;PMS_P2;Temp;Humidity;BMP_temperature;BMP_pressure;BME280_temperature;BME280_humidity;BME280_pressure;Samples;Min_cycle;Max_cycle;Signal;HPM_P1;HPM_P2
2022/10/07 00:00:41;;;;;;;10.43;3.60;;;;;;;;;;5114872;27;20486;-79
2022/10/07 00:03:08;;;;;;;16.58;4.30;;;;;;;;;;5115158;28;20395;-79
2022/10/07 00:05:34;;;;;;;13.40;3.38;;;;;;;;;;5133744;27;20038;-79
2022/10/07 00:08:00;;;;;;;12.82;3.83;;;;;;;;;;5114911;28;20407;-78
2022/10/07 00:10:26;;;;;;;12.43;3.58;;;;;;;;;;5115817;28;20046;-79
2022/10/07 00:12:52;;;;;;;14.98;3.95;;;;;;;;;;5114560;28;20040;-78
2022/10/07 00:15:18;;;;;;;11.80;3.85;;;;;;;;;;5097777;28;20058;-79
2022/10/07 00:17:45;;;;;;;15.52;4.00;;;;;;;;;;5125182;27;20570;-79
2022/10/07 00:20:11;;;;;;;11.82;3.80;;;;;;;;;;5116383;28;20109;-79
2022/10/07 00:22:37;;;;;;;13.15;3.58;;;;;;;;;;5111777;28;20039;-70
2022/10/07 00:25:03;;;;;;;14.68;3.83;;;;;;;;;;5114280;28;20095;-70
2022/10/07 00:27:29;;;;;;;11.57;3.78;;;;;;;;;;5114361;28;20043;-78
2022/10/07 00:29:55;;;;;;;11.73;3.58;;;;;;;;;;5119387;28;20118;-78
2022/10/07 00:32:22;;;;;;;16.13;3.70;;;;;;;;;;5133163;28;20031;-78
2022/10/07 00:34:48;;;;;;;10.30;3.60;;;;;;;;;;5134051;27;20074;-78
2022/10/07 00:37:14;;;;;;;12.30;4.20;;;;;;;;;;5098887;27;20070;-78
2022/10/07 00:39:40;;;;;;;13.90;4.05;;;;;;;;;;5114355;28;20043;-79
2022/10/07 00:42:06;;;;;;;11.18;3.92;;;;;;;;;;5114325;28;20043;-79
2022/10/07 00:44:33;;;;;;;13.82;4.25;;;;;;;;;;5100039;28;20084;-79
2022/10/07 00:47:01;;;;;;;15.95;4.10;;;;;;;;;;5098182;28;20578;-78
2022/10/07 00:49:28;;;;;;;13.13;4.38;;;;;;;;;;5114410;28;20053;-79
2022/10/07 00:51:54;;;;;;;14.10;4.20;;;;;;;;;;5132456;28;20075;-79
2022/10/07 00:54:20;;;;;;;12.60;4.03;;;;;;;;;;5114189;28;20046;-78
2022/10/07 00:56:48;;;;;;;9.95;4.35;;;;;;;;;;5132541;28;20552;-78
2022/10/07 00:59:15;;;;;;;13.02;4.57;;;;;;;;;;5142350;27;20114;-78
2022/10/07 01:01:41;;;;;;;14.95;4.50;;;;;;;;;;5137608;27;20114;-78
2022/10/07 01:04:11;;;;;;;14.27;4.30;;;;;;;;;;5136108;27;20476;-78
2022/10/07 01:06:38;;;;;;;21.00;5.43;;;;;;;;;;5118012;27;20043;-78
2022/10/07 01:09:05;;;;;;;13.75;4.90;;;;;;;;;;5101508;27;20039;-79
2022/10/07 01:11:37;;;;;;;15.73;4.40;;;;;;;;;;5119155;27;20495;-78
2022/10/07 01:14:06;;;;;;;13.45;4.97;;;;;;;;;;5100376;27;20039;-79
2022/10/07 01:16:51;;;;;;;15.32;5.13;;;;;;;;;;5100718;27;20039;-78
2022/10/07 01:19:20;;;;;;;10.90;4.70;;;;;;;;;;5125520;27;20066;-78
2022/10/07 01:22:04;;;;;;;16.35;5.22;;;;;;;;;;5117828;27;20032;-79
2022/10/07 01:24:39;;;;;;;12.77;4.85;;;;;;;;;;5136750;27;20121;-78
2022/10/07 01:27:10;;;;;;;14.98;5.50;;;;;;;;;;5100977;27;20031;-78
2022/10/07 01:29:39;;;;;;;14.80;5.43;;;;;;;;;;5118304;27;20055;-70
2022/10/07 01:32:05;;;;;;;14.40;5.13;;;;;;;;;;5117214;27;20069;-78
2022/10/07 01:34:33;;;;;;;14.10;4.93;;;;;;;;;;5117560;27;20476;-78
2022/10/07 01:37:00;;;;;;;12.98;5.10;;;;;;;;;;5125517;27;20117;-78
2022/10/07 01:39:29;;;;;;;17.95;5.75;;;;;;;;;;5120639;27;20047;-78
2022/10/07 01:41:55;;;;;;;11.15;5.20;;;;;;;;;;5117105;27;20039;-78
2022/10/07 01:44:21;;;;;;;13.50;5.53;;;;;;;;;;5135482;27;20035;-78
2022/10/07 01:46:47;;;;;;;16.10;5.53;;;;;;;;;;5117257;27;20070;-79
2022/10/07 01:49:13;;;;;;;11.98;4.70;;;;;;;;;;5137865;27;20055;-78
2022/10/07 01:51:41;;;;;;;13.35;5.28;;;;;;;;;;5117148;27;20043;-78
2022/10/07 01:54:33;;;;;;;11.48;5.30;;;;;;;;;;5116774;27;20555;-78
2022/10/07 01:57:19;;;;;;;16.30;5.32;;;;;;;;;;5112380;27;20046;-78
2022/10/07 01:59:45;;;;;;;21.13;6.43;;;;;;;;;;5069302;27;20052;-70
2022/10/07 02:02:31;;;;;;;14.93;4.90;;;;;;;;;;5137214;27;20365;-70
2022/10/07 02:05:03;;;;;;;16.92;6.05;;;;;;;;;;5114051;27;20042;-70
2022/10/07 02:07:29;;;;;;;14.85;5.30;;;;;;;;;;5105124;27;20043;-70
2022/10/07 02:10:14;;;;;;;13.43;4.90;;;;;;;;;;5114671;27;20071;-70
2022/10/07 02:12:43;;;;;;;18.38;5.72;;;;;;;;;;5128500;27;20075;-70
2022/10/07 02:15:29;;;;;;;12.93;4.93;;;;;;;;;;5107415;27;20123;-70
2022/10/07 02:17:57;;;;;;;19.50;5.30;;;;;;;;;;5045967;28;20044;-70
2022/10/07 02:20:25;;;;;;;15.32;4.80;;;;;;;;;;5109207;27;20053;-70
2022/10/07 02:22:53;;;;;;;18.67;5.78;;;;;;;;;;5135001;27;20039;-78
2022/10/07 02:25:20;;;;;;;11.93;4.20;;;;;;;;;;5129579;27;20076;-78
2022/10/07 02:27:48;;;;;;;16.77;4.63;;;;;;;;;;5115059;27;20042;-78
2022/10/07 02:30:15;;;;;;;19.15;4.95;;;;;;;;;;5134985;27;20043;-69
2022/10/07 02:32:45;;;;;;;17.77;4.63;;;;;;;;;;5116170;27;20365;-71
2022/10/07 02:35:17;;;;;;;13.43;4.32;;;;;;;;;;5134120;27;20372;-70
2022/10/07 02:37:46;;;;;;;18.20;5.45;;;;;;;;;;5099264;27;20122;-70
2022/10/07 02:40:12;;;;;;;17.50;5.00;;;;;;;;;;5099545;27;20043;-69
2022/10/07 02:42:38;;;;;;;16.08;4.15;;;;;;;;;;5129373;27;20460;-70
2022/10/07 02:45:19;;;;;;;17.10;4.47;;;;;;;;;;5115629;27;20075;-70
2022/10/07 02:47:49;;;;;;;18.67;5.00;;;;;;;;;;5095597;28;20106;-70
2022/10/07 02:50:17;;;;;;;16.05;4.30;;;;;;;;;;5091914;28;20044;-77
2022/10/07 02:52:44;;;;;;;17.23;5.00;;;;;;;;;;5095127;28;20039;-78
2022/10/07 02:55:14;;;;;;;14.85;4.70;;;;;;;;;;5092947;28;20035;-78
2022/10/07 02:57:44;;;;;;;17.90;4.57;;;;;;;;;;5092230;28;20052;-78
2022/10/07 03:00:10;;;;;;;15.90;5.22;;;;;;;;;;5108695;28;20058;-78
2022/10/07 03:02:48;;;;;;;23.25;4.90;;;;;;;;;;5075738;28;20492;-79
2022/10/07 03:05:18;;;;;;;20.45;5.00;;;;;;;;;;5092676;28;20553;-70
2022/10/07 03:07:45;;;;;;;18.20;4.57;;;;;;;;;;5091587;28;20097;-70
2022/10/07 03:10:11;;;;;;;18.17;4.82;;;;;;;;;;5091362;28;20040;-70
2022/10/07 03:12:37;;;;;;;22.02;5.10;;;;;;;;;;5097681;28;20039;-69
2022/10/07 03:15:03;;;;;;;17.58;5.43;;;;;;;;;;5091388;28;20071;-70
2022/10/07 03:17:29;;;;;;;17.73;4.90;;;;;;;;;;5103803;28;20472;-70
2022/10/07 03:19:56;;;;;;;20.67;4.95;;;;;;;;;;5094419;28;20373;-70
2022/10/07 03:22:22;;;;;;;18.83;5.15;;;;;;;;;;5091786;28;20075;-78
2022/10/07 03:24:48;;;;;;;19.17;6.25;;;;;;;;;;5092063;28;20032;-70
2022/10/07 03:27:14;;;;;;;14.27;4.70;;;;;;;;;;5092560;28;20036;-69
2022/10/07 03:29:40;;;;;;;15.82;4.68;;;;;;;;;;5082516;28;20042;-69
2022/10/07 03:32:07;;;;;;;19.48;5.13;;;;;;;;;;5091755;28;20506;-70
2022/10/07 03:34:33;;;;;;;20.02;4.78;;;;;;;;;;5091259;28;20040;-77
2022/10/07 03:36:59;;;;;;;15.32;4.95;;;;;;;;;;5091370;28;20072;-78
2022/10/07 03:39:25;;;;;;;15.30;5.07;;;;;;;;;;5091148;28;20040;-70
2022/10/07 03:41:51;;;;;;;25.95;5.90;;;;;;;;;;5096719;28;20036;-70
2022/10/07 03:44:21;;;;;;;23.13;5.18;;;;;;;;;;5092579;28;20040;-70
2022/10/07 03:46:51;;;;;;;22.38;5.47;;;;;;;;;;5074018;28;20048;-78
2022/10/07 03:49:18;;;;;;;16.08;5.25;;;;;;;;;;5091198;28;20040;-78
2022/10/07 03:51:44;;;;;;;21.30;5.10;;;;;;;;;;5105754;28;20047;-71
2022/10/07 03:54:10;;;;;;;23.00;5.03;;;;;;;;;;5114810;27;20031;-69
2022/10/07 03:56:36;;;;;;;20.40;5.50;;;;;;;;;;5119108;27;20036;-70
2022/10/07 03:59:02;;;;;;;19.60;5.35;;;;;;;;;;5112822;28;20035;-77
2022/10/07 04:01:32;;;;;;;15.65;5.00;;;;;;;;;;5111441;28;20114;-78
2022/10/07 04:03:59;;;;;;;18.90;5.00;;;;;;;;;;5106102;28;20074;-78
2022/10/07 04:06:26;;;;;;;17.63;4.68;;;;;;;;;;5116752;27;20211;-70
2022/10/07 04:08:52;;;;;;;23.00;5.32;;;;;;;;;;5099763;28;20039;-70
2022/10/07 04:11:19;;;;;;;15.70;5.05;;;;;;;;;;5082062;28;20050;-77
2022/10/07 04:13:45;;;;;;;20.02;5.25;;;;;;;;;;5098386;28;20055;-70
2022/10/07 04:16:12;;;;;;;17.98;4.72;;;;;;;;;;5104426;28;20043;-70
2022/10/07 04:18:40;;;;;;;21.45;5.70;;;;;;;;;;5095075;28;20051;-78
2022/10/07 04:21:06;;;;;;;18.55;5.93;;;;;;;;;;5111079;28;20055;-78
2022/10/07 04:23:32;;;;;;;20.02;5.80;;;;;;;;;;5111606;28;20460;-78
2022/10/07 04:25:59;;;;;;;19.27;5.65;;;;;;;;;;5095937;28;20035;-78
2022/10/07 04:28:25;;;;;;;18.33;5.30;;;;;;;;;;5111979;28;20032;-70
2022/10/07 04:30:52;;;;;;;20.55;5.47;;;;;;;;;;5114366;28;20122;-78
2022/10/07 04:33:22;;;;;;;17.15;5.05;;;;;;;;;;5114218;28;20040;-78
2022/10/07 04:35:49;;;;;;;20.95;5.80;;;;;;;;;;5094621;28;20122;-78
2022/10/07 04:38:16;;;;;;;22.55;5.68;;;;;;;;;;5117858;27;20039;-78
2022/10/07 04:40:44;;;;;;;24.75;5.85;;;;;;;;;;5105849;28;20071;-78
2022/10/07 04:43:18;;;;;;;21.63;5.70;;;;;;;;;;5103135;27;20036;-78
2022/10/07 04:45:44;;;;;;;18.70;5.68;;;;;;;;;;5095806;28;20039;-78
2022/10/07 04:48:10;;;;;;;24.13;5.93;;;;;;;;;;5112860;27;20106;-78
2022/10/07 04:50:37;;;;;;;23.27;5.88;;;;;;;;;;5095574;28;20040;-78
2022/10/07 04:53:08;;;;;;;18.08;6.10;;;;;;;;;;5094494;28;20071;-78
2022/10/07 04:55:38;;;;;;;18.50;5.50;;;;;;;;;;5089109;28;20035;-78
2022/10/07 04:58:05;;;;;;;22.92;5.50;;;;;;;;;;5113334;27;20043;-79
2022/10/07 05:00:31;;;;;;;24.08;5.80;;;;;;;;;;5105249;27;20035;-78
2022/10/07 05:02:57;;;;;;;18.02;5.90;;;;;;;;;;5094426;28;20055;-78
2022/10/07 05:05:24;;;;;;;20.88;6.00;;;;;;;;;;5094876;28;20449;-78
2022/10/07 05:07:51;;;;;;;26.42;6.28;;;;;;;;;;5098144;27;20079;-78
2022/10/07 05:10:18;;;;;;;18.17;6.63;;;;;;;;;;5093250;28;20083;-78
2022/10/07 05:12:44;;;;;;;21.88;5.97;;;;;;;;;;5093689;28;20043;-78
2022/10/07 05:15:10;;;;;;;28.95;5.55;;;;;;;;;;5093478;28;20040;-78
2022/10/07 05:17:39;;;;;;;25.33;7.03;;;;;;;;;;5114298;28;20047;-78
2022/10/07 05:20:05;;;;;;;19.08;6.40;;;;;;;;;;5124676;27;20100;-78
2022/10/07 05:22:31;;;;;;;24.42;5.88;;;;;;;;;;5115632;27;20040;-78
2022/10/07 05:24:57;;;;;;;19.95;6.13;;;;;;;;;;5114209;28;20046;-79
2022/10/07 05:27:23;;;;;;;23.30;6.38;;;;;;;;;;5116172;27;20047;-78
2022/10/07 05:29:49;;;;;;;22.17;6.28;;;;;;;;;;5109866;27;20118;-78
2022/10/07 05:32:16;;;;;;;23.85;6.60;;;;;;;;;;5093899;28;20097;-78
2022/10/07 05:34:43;;;;;;;28.08;7.13;;;;;;;;;;5091193;28;20051;-78
2022/10/07 05:37:10;;;;;;;21.58;6.95;;;;;;;;;;5107817;28;20148;-79
2022/10/07 05:39:36;;;;;;;22.58;7.30;;;;;;;;;;5098531;27;20035;-79
2022/10/07 05:42:02;;;;;;;21.23;7.03;;;;;;;;;;5110044;28;20042;-79
2022/10/07 05:44:31;;;;;;;20.10;6.60;;;;;;;;;;5094773;28;20044;-78
2022/10/07 05:46:57;;;;;;;24.10;7.13;;;;;;;;;;5093605;28;20040;-77
2022/10/07 05:49:23;;;;;;;21.55;7.57;;;;;;;;;;5106029;27;20132;-71
2022/10/07 05:51:52;;;;;;;20.48;7.43;;;;;;;;;;5115454;27;20035;-70
2022/10/07 05:54:19;;;;;;;21.20;6.63;;;;;;;;;;5080667;28;20063;-70
2022/10/07 05:56:45;;;;;;;23.45;7.32;;;;;;;;;;5095669;28;20046;-70
2022/10/07 05:59:12;;;;;;;19.90;7.45;;;;;;;;;;5095843;28;20123;-69
2022/10/07 06:01:41;;;;;;;25.58;7.60;;;;;;;;;;5115676;27;20038;-70
2022/10/07 06:04:07;;;;;;;27.20;6.95;;;;;;;;;;5098269;27;20043;-79
2022/10/07 06:06:34;;;;;;;28.08;7.60;;;;;;;;;;5090391;27;20122;-79
2022/10/07 06:14:29;;;;;;;22.08;5.97;;;;;;;;;;5130144;27;20035;-79
2022/10/07 06:16:55;;;;;;;20.63;6.30;;;;;;;;;;5116760;27;20042;-78
2022/10/07 06:19:21;;;;;;;20.17;6.68;;;;;;;;;;5135302;27;20127;-78
2022/10/07 06:21:47;;;;;;;16.00;5.20;;;;;;;;;;5102484;27;20043;-70
2022/10/07 06:24:14;;;;;;;19.35;6.10;;;;;;;;;;5124438;27;20072;-70
2022/10/07 06:26:42;;;;;;;20.40;5.95;;;;;;;;;;5115951;27;20057;-70
2022/10/07 06:29:08;;;;;;;17.48;4.97;;;;;;;;;;5134411;27;20121;-70
2022/10/07 06:31:35;;;;;;;17.15;5.20;;;;;;;;;;5095826;27;20047;-70
2022/10/07 06:34:01;;;;;;;15.55;4.95;;;;;;;;;;5117634;27;20507;-70
2022/10/07 06:36:27;;;;;;;14.52;4.47;;;;;;;;;;5102613;27;20539;-70
2022/10/07 06:38:54;;;;;;;17.58;4.90;;;;;;;;;;5077167;28;20051;-70
2022/10/07 06:41:21;;;;;;;13.85;4.28;;;;;;;;;;5098829;27;20081;-70
2022/10/07 06:43:48;;;;;;;16.90;4.68;;;;;;;;;;5120167;27;20096;-70
2022/10/07 06:46:15;;;;;;;14.10;3.97;;;;;;;;;;5099029;27;20452;-70
2022/10/07 06:48:43;;;;;;;19.15;4.38;;;;;;;;;;5134689;27;20063;-70
2022/10/07 06:51:12;;;;;;;17.60;4.60;;;;;;;;;;5131317;27;20043;-70
2022/10/07 06:53:38;;;;;;;16.00;4.22;;;;;;;;;;5099560;28;20114;-69
2022/10/07 06:56:05;;;;;;;15.20;4.32;;;;;;;;;;5110490;27;20039;-70
2022/10/07 06:58:31;;;;;;;16.35;4.32;;;;;;;;;;5118419;27;20100;-69
2022/10/07 07:01:01;;;;;;;15.70;3.83;;;;;;;;;;5119062;27;20038;-70
2022/10/07 07:03:27;;;;;;;14.43;3.78;;;;;;;;;;5114087;27;20043;-81
2022/10/07 07:05:53;;;;;;;15.27;4.15;;;;;;;;;;5066321;28;20103;-79
2022/10/07 07:08:20;;;;;;;11.65;3.97;;;;;;;;;;5094984;28;20388;-79
2022/10/07 07:10:47;;;;;;;11.30;3.63;;;;;;;;;;5101975;27;20043;-79
2022/10/07 07:13:14;;;;;;;13.32;3.47;;;;;;;;;;5094729;28;20044;-79
2022/10/07 07:15:40;;;;;;;13.13;3.80;;;;;;;;;;5103074;27;20113;-77
2022/10/07 07:18:07;;;;;;;13.40;3.55;;;;;;;;;;5115397;27;20057;-79
2022/10/07 07:20:34;;;;;;;15.85;3.50;;;;;;;;;;5115374;27;20063;-79
2022/10/07 07:23:01;;;;;;;14.88;3.70;;;;;;;;;;5135404;27;20483;-79
2022/10/07 07:25:27;;;;;;;13.95;3.92;;;;;;;;;;5121927;27;20027;-78
2022/10/07 07:27:55;;;;;;;15.77;3.97;;;;;;;;;;5114168;27;20058;-79
2022/10/07 07:30:23;;;;;;;15.57;3.72;;;;;;;;;;5133498;27;20046;-77
2022/10/07 07:32:49;;;;;;;12.57;3.88;;;;;;;;;;5114649;27;20403;-79
2022/10/07 07:35:15;;;;;;;13.45;3.65;;;;;;;;;;5142808;27;20031;-78
2022/10/07 07:37:42;;;;;;;14.15;3.78;;;;;;;;;;5127549;27;20522;-78
2022/10/07 07:40:08;;;;;;;12.90;3.70;;;;;;;;;;5115132;27;20043;-70
2022/10/07 07:42:36;;;;;;;15.55;3.35;;;;;;;;;;5097998;27;20154;-77
2022/10/07 07:45:02;;;;;;;17.20;3.90;;;;;;;;;;5097666;27;20054;-79
2022/10/07 07:47:29;;;;;;;12.57;3.60;;;;;;;;;;5114615;27;20055;-78
2022/10/07 07:49:55;;;;;;;14.43;3.55;;;;;;;;;;5114871;27;20035;-79
2022/10/07 07:52:24;;;;;;;15.95;3.60;;;;;;;;;;5115484;27;20425;-79
2022/10/07 07:54:51;;;;;;;14.43;3.60;;;;;;;;;;5132818;27;20053;-80
2022/10/07 07:57:17;;;;;;;17.30;3.50;;;;;;;;;;5123274;27;20102;-79
2022/10/07 07:59:43;;;;;;;11.10;3.20;;;;;;;;;;5101839;27;20035;-79
2022/10/07 08:02:10;;;;;;;16.52;4.18;;;;;;;;;;5133374;27;20507;-79
2022/10/07 08:04:37;;;;;;;13.35;3.50;;;;;;;;;;5097597;28;20042;-79
2022/10/07 08:07:03;;;;;;;10.10;3.10;;;;;;;;;;5104117;27;20039;-79
2022/10/07 08:09:29;;;;;;;13.65;3.45;;;;;;;;;;5085979;28;20080;-80
2022/10/07 08:11:56;;;;;;;15.88;3.80;;;;;;;;;;5083050;28;20050;-79
2022/10/07 08:14:22;;;;;;;14.57;4.07;;;;;;;;;;5095834;28;20043;-79
2022/10/07 08:16:49;;;;;;;12.02;3.55;;;;;;;;;;5120192;27;20038;-79
2022/10/07 08:19:15;;;;;;;16.77;3.55;;;;;;;;;;5137625;27;20053;-79
2022/10/07 08:21:41;;;;;;;14.85;2.90;;;;;;;;;;5134644;27;20084;-80
2022/10/07 08:24:08;;;;;;;16.50;3.75;;;;;;;;;;5125017;27;20045;-80
2022/10/07 08:26:36;;;;;;;16.05;3.55;;;;;;;;;;5116627;28;20031;-80
2022/10/07 08:29:03;;;;;;;13.40;3.55;;;;;;;;;;5099082;28;20051;-80
2022/10/07 08:31:30;;;;;;;19.13;3.53;;;;;;;;;;5114871;28;20053;-80
2022/10/07 08:33:57;;;;;;;13.30;3.42;;;;;;;;;;5132498;28;20031;-80
2022/10/07 08:36:24;;;;;;;14.27;2.85;;;;;;;;;;5114372;28;20047;-80
2022/10/07 08:38:50;;;;;;;12.02;2.90;;;;;;;;;;5115309;27;20082;-80
2022/10/07 08:41:41;;;;;;;13.48;3.40;;;;;;;;;;5114087;28;20043;-80
2022/10/07 08:44:16;;;;;;;12.13;3.08;;;;;;;;;;5123396;27;20043;-71
2022/10/07 08:47:01;;;;;;;11.27;2.88;;;;;;;;;;5110529;27;20082;-71
2022/10/07 08:49:32;;;;;;;10.63;2.58;;;;;;;;;;5128402;27;20074;-71
2022/10/07 08:52:02;;;;;;;18.67;3.08;;;;;;;;;;5122931;27;20042;-72
2022/10/07 08:54:29;;;;;;;12.52;2.70;;;;;;;;;;5114585;28;20051;-71
2022/10/07 08:56:58;;;;;;;11.65;3.08;;;;;;;;;;5114841;27;20050;-69
2022/10/07 08:59:32;;;;;;;11.98;2.72;;;;;;;;;;5132248;27;20116;-68
2022/10/07 09:02:10;;;;;;;13.73;3.08;;;;;;;;;;5118472;27;20043;-69
2022/10/07 09:04:45;;;;;;;16.33;3.05;;;;;;;;;;5108931;28;20068;-68
2022/10/07 09:07:15;;;;;;;11.48;3.03;;;;;;;;;;5099097;28;20051;-71
2022/10/07 09:09:41;;;;;;;12.57;2.67;;;;;;;;;;5125649;27;20123;-70
2022/10/07 09:12:10;;;;;;;13.48;2.78;;;;;;;;;;5099721;28;20043;-71
2022/10/07 09:14:38;;;;;;;14.25;2.70;;;;;;;;;;5113832;28;20124;-71
2022/10/07 09:17:16;;;;;;;15.00;2.50;;;;;;;;;;5089375;28;20031;-70
2022/10/07 09:19:48;;;;;;;12.48;2.65;;;;;;;;;;5105012;28;20037;-70
2022/10/07 09:22:18;;;;;;;10.52;2.70;;;;;;;;;;5094251;28;20062;-70
2022/10/07 09:24:46;;;;;;;12.20;2.92;;;;;;;;;;5083827;28;20426;-71
2022/10/07 09:27:13;;;;;;;14.85;2.80;;;;;;;;;;5112449;27;20034;-70
2022/10/07 09:29:39;;;;;;;12.90;2.50;;;;;;;;;;5105830;27;20114;-71
2022/10/07 09:32:05;;;;;;;16.88;2.53;;;;;;;;;;5114693;27;20503;-70
2022/10/07 09:34:31;;;;;;;19.48;2.70;;;;;;;;;;5123689;27;20494;-70
2022/10/07 09:37:09;;;;;;;15.57;2.97;;;;;;;;;;5120788;27;20606;-70
2022/10/07 09:39:36;;;;;;;9.70;2.20;;;;;;;;;;5122224;27;20452;-69
2022/10/07 09:42:03;;;;;;;11.63;2.15;;;;;;;;;;5101101;28;20036;-70
2022/10/07 09:44:29;;;;;;;9.85;2.20;;;;;;;;;;5121954;27;20039;-70
2022/10/07 09:46:58;;;;;;;12.45;2.53;;;;;;;;;;5096382;28;20083;-70
2022/10/07 09:49:27;;;;;;;9.32;2.30;;;;;;;;;;5108525;27;20047;-71
2022/10/07 09:51:59;;;;;;;13.77;2.35;;;;;;;;;;5101864;27;20411;-69
2022/10/07 09:54:26;;;;;;;11.55;2.72;;;;;;;;;;5111465;27;20075;-70
2022/10/07 09:56:56;;;;;;;17.80;2.53;;;;;;;;;;5124140;27;20043;-70
2022/10/07 09:59:24;;;;;;;13.10;2.60;;;;;;;;;;5116295;27;20093;-70
2022/10/07 10:01:54;;;;;;;11.30;2.50;;;;;;;;;;5117942;27;20039;-70
2022/10/07 10:04:24;;;;;;;15.70;3.22;;;;;;;;;;5116599;27;20039;-71
2022/10/07 10:06:51;;;;;;;9.55;2.20;;;;;;;;;;5116798;27;20174;-71
2022/10/07 10:09:22;;;;;;;11.98;2.40;;;;;;;;;;5096869;27;20074;-70
2022/10/07 10:12:00;;;;;;;13.23;2.40;;;;;;;;;;5111339;27;20071;-70
2022/10/07 10:14:28;;;;;;;10.80;2.20;;;;;;;;;;5113956;27;20507;-73
2022/10/07 10:16:54;;;;;;;10.68;2.47;;;;;;;;;;5120974;27;20289;-70
2022/10/07 10:19:25;;;;;;;15.43;2.35;;;;;;;;;;5100601;27;20486;-70
2022/10/07 10:21:53;;;;;;;11.70;2.53;;;;;;;;;;5136461;27;20456;-70
2022/10/07 10:26:24;;;;;;;15.45;2.78;;;;;;;;;;5117074;27;20096;-80
2022/10/07 10:27:25;;;;;;;11.95;2.15;;;;;;;;;;5113362;27;20491;-80
2022/10/07 10:29:55;;;;;;;12.18;2.40;;;;;;;;;;5118209;27;20045;-80
2022/10/07 10:32:39;;;;;;;12.82;2.10;;;;;;;;;;5134500;27;20039;-79
2022/10/07 10:35:15;;;;;;;12.68;2.33;;;;;;;;;;5095244;27;20055;-80
2022/10/07 10:37:41;;;;;;;14.40;2.40;;;;;;;;;;5129087;27;20040;-80
2022/10/07 10:40:07;;;;;;;13.45;2.45;;;;;;;;;;5111282;27;20050;-80
2022/10/07 10:42:44;;;;;;;14.50;2.67;;;;;;;;;;5113686;27;20623;-79
2022/10/07 10:45:14;;;;;;;16.02;2.50;;;;;;;;;;5115281;27;20038;-81
2022/10/07 10:47:50;;;;;;;12.43;2.30;;;;;;;;;;5117846;27;20138;-70
2022/10/07 10:50:18;;;;;;;9.55;2.47;;;;;;;;;;5112280;27;20035;-81
2022/10/07 10:52:56;;;;;;;10.90;2.47;;;;;;;;;;5115560;27;20096;-81
2022/10/07 10:55:25;;;;;;;11.55;2.40;;;;;;;;;;5111312;27;20125;-78
2022/10/07 10:58:10;;;;;;;14.02;2.47;;;;;;;;;;5113237;27;20502;-78
2022/10/07 11:00:44;;;;;;;10.55;2.30;;;;;;;;;;5099094;28;20031;-81
2022/10/07 11:03:26;;;;;;;12.85;2.42;;;;;;;;;;5124219;27;20042;-79
2022/10/07 11:05:54;;;;;;;12.95;2.55;;;;;;;;;;5098949;27;20156;-79
2022/10/07 11:08:38;;;;;;;10.75;2.53;;;;;;;;;;5098889;27;20399;-80
2022/10/07 11:11:18;;;;;;;11.48;2.63;;;;;;;;;;5114358;27;20475;-80
2022/10/07 11:13:57;;;;;;;12.25;2.72;;;;;;;;;;5103979;27;20034;-79
2022/10/07 11:16:42;;;;;;;10.73;2.42;;;;;;;;;;5108719;28;20027;-80
2022/10/07 11:19:15;;;;;;;11.27;2.27;;;;;;;;;;5107211;27;20034;-81
2022/10/07 11:21:46;;;;;;;13.43;2.83;;;;;;;;;;5118807;27;20686;-80
2022/10/07 11:24:30;;;;;;;11.52;2.17;;;;;;;;;;5124748;27;20077;-83
2022/10/07 11:26:59;;;;;;;12.90;2.75;;;;;;;;;;5088647;27;20050;-83
2022/10/07 11:29:28;;;;;;;14.30;3.38;;;;;;;;;;5112217;27;20506;-81
2022/10/07 11:31:57;;;;;;;14.82;2.60;;;;;;;;;;5107091;28;20426;-78
2022/10/07 11:34:43;;;;;;;12.38;2.35;;;;;;;;;;5106772;27;20035;-79
2022/10/07 11:37:17;;;;;;;12.10;2.30;;;;;;;;;;5107092;27;20035;-79
2022/10/07 11:39:44;;;;;;;14.85;3.08;;;;;;;;;;5109768;27;20395;-79
2022/10/07 11:42:15;;;;;;;12.60;2.63;;;;;;;;;;5107943;27;20565;-80
2022/10/07 11:44:50;;;;;;;17.17;3.47;;;;;;;;;;5106967;27;20031;-79
2022/10/07 11:47:19;;;;;;;9.23;2.78;;;;;;;;;;5130443;27;20058;-71
2022/10/07 11:49:54;;;;;;;10.88;2.58;;;;;;;;;;5096611;27;20043;-70
2022/10/07 11:52:23;;;;;;;15.10;2.80;;;;;;;;;;5096781;27;20388;-71
2022/10/07 11:54:59;;;;;;;12.25;2.88;;;;;;;;;;5114126;27;20083;-70
2022/10/07 11:57:26;;;;;;;14.63;2.88;;;;;;;;;;5110476;27;20050;-72
2022/10/07 11:59:57;;;;;;;14.82;3.15;;;;;;;;;;5101312;27;20035;-71
2022/10/07 12:02:29;;;;;;;11.27;2.40;;;;;;;;;;5101311;28;20205;-71
2022/10/07 12:04:59;;;;;;;14.60;2.47;;;;;;;;;;5094331;28;20131;-70
2022/10/07 12:07:34;;;;;;;14.57;3.88;;;;;;;;;;5107243;28;20032;-71
2022/10/07 12:10:00;;;;;;;15.93;3.70;;;;;;;;;;5094291;28;20111;-71
2022/10/07 12:12:45;;;;;;;11.63;2.42;;;;;;;;;;5100218;28;20051;-72
2022/10/07 12:15:25;;;;;;;11.20;2.50;;;;;;;;;;5105983;27;20043;-71
2022/10/07 12:17:55;;;;;;;10.82;2.42;;;;;;;;;;5102582;28;20043;-71
2022/10/07 12:20:31;;;;;;;11.55;1.92;;;;;;;;;;5111977;28;20035;-79
2022/10/07 12:23:33;;;;;;;12.40;2.40;;;;;;;;;;5113252;28;20044;-78
2022/10/07 12:26:00;;;;;;;9.88;2.13;;;;;;;;;;5101987;28;20085;-70
2022/10/07 12:28:28;;;;;;;11.02;2.10;;;;;;;;;;5091173;28;20032;-78
2022/10/07 12:30:56;;;;;;;11.52;2.17;;;;;;;;;;5103178;28;20118;-78
2022/10/07 12:33:39;;;;;;;10.73;1.95;;;;;;;;;;5097032;28;20489;-78
2022/10/07 12:36:20;;;;;;;12.13;2.40;;;;;;;;;;5112398;27;20046;-77
2022/10/07 12:39:08;;;;;;;13.23;2.05;;;;;;;;;;5095649;28;20043;-78
2022/10/07 12:41:42;;;;;;;13.13;2.10;;;;;;;;;;5078657;28;20054;-78
2022/10/07 12:44:14;;;;;;;13.15;2.10;;;;;;;;;;5098122;28;20039;-79
2022/10/07 12:46:49;;;;;;;12.85;2.47;;;;;;;;;;5104737;27;20031;-78
2022/10/07 12:49:29;;;;;;;11.05;2.33;;;;;;;;;;5091071;28;20048;-78
2022/10/07 12:51:57;;;;;;;9.77;1.90;;;;;;;;;;5094278;28;20032;-79
2022/10/07 12:54:23;;;;;;;11.65;2.95;;;;;;;;;;5093733;28;20043;-78
2022/10/07 12:56:49;;;;;;;10.45;2.40;;;;;;;;;;5100926;27;20040;-79
2022/10/07 13:02:27;;;;;;;13.07;3.17;;;;;;;;;;5103235;27;20055;-78
2022/10/07 13:04:56;;;;;;;14.20;3.42;;;;;;;;;;5118526;27;20434;-79
2022/10/07 13:07:42;;;;;;;16.58;2.80;;;;;;;;;;5102935;27;20039;-78
2022/10/07 13:10:27;;;;;;;14.52;3.22;;;;;;;;;;5114822;27;20491;-81
2022/10/07 13:12:55;;;;;;;10.98;2.78;;;;;;;;;;5100682;27;20043;-78
2022/10/07 13:15:41;;;;;;;13.35;3.58;;;;;;;;;;5136648;27;20039;-77
2022/10/07 13:18:16;;;;;;;11.55;3.05;;;;;;;;;;5127861;27;20050;-78
2022/10/07 13:20:50;;;;;;;13.85;3.40;;;;;;;;;;5126860;27;20408;-78
2022/10/07 13:23:18;;;;;;;12.55;3.22;;;;;;;;;;5101040;27;20484;-79
2022/10/07 13:25:45;;;;;;;11.02;3.00;;;;;;;;;;5117437;27;20130;-80
2022/10/07 13:28:16;;;;;;;12.57;2.53;;;;;;;;;;5101563;27;20047;-79
2022/10/07 13:30:42;;;;;;;9.98;2.40;;;;;;;;;;5119127;27;20556;-80
2022/10/07 13:33:20;;;;;;;11.07;2.63;;;;;;;;;;5117953;27;20505;-78
2022/10/07 13:35:46;;;;;;;14.40;2.92;;;;;;;;;;5117925;27;20100;-78
2022/10/07 13:38:25;;;;;;;11.07;3.53;;;;;;;;;;5118653;27;20039;-78
2022/10/07 13:40:53;;;;;;;10.27;2.60;;;;;;;;;;5119241;27;20035;-78
2022/10/07 13:43:20;;;;;;;8.38;2.00;;;;;;;;;;5118204;27;20122;-79
2022/10/07 13:45:46;;;;;;;10.23;2.20;;;;;;;;;;5117293;27;20126;-71
2022/10/07 13:48:16;;;;;;;11.35;2.50;;;;;;;;;;5100090;27;20052;-71
2022/10/07 13:50:43;;;;;;;9.55;2.80;;;;;;;;;;5134089;27;20121;-72
2022/10/07 13:53:29;;;;;;;12.30;2.70;;;;;;;;;;5122707;27;20039;-71
2022/10/07 13:56:14;;;;;;;11.60;3.28;;;;;;;;;;5135615;27;20035;-79
2022/10/07 13:58:40;;;;;;;10.77;3.33;;;;;;;;;;5099818;27;20031;-79
2022/10/07 14:01:06;;;;;;;13.80;3.17;;;;;;;;;;5145535;27;20031;-71
2022/10/07 14:03:32;;;;;;;13.63;3.38;;;;;;;;;;5119963;27;20065;-78
2022/10/07 14:06:00;;;;;;;11.70;3.40;;;;;;;;;;5117122;27;20099;-78
2022/10/07 14:08:30;;;;;;;12.85;3.55;;;;;;;;;;5101836;28;20043;-78
2022/10/07 14:10:59;;;;;;;14.38;3.47;;;;;;;;;;5123510;27;20034;-78
2022/10/07 14:13:27;;;;;;;11.60;3.20;;;;;;;;;;5122174;27;20039;-77
2022/10/07 14:15:54;;;;;;;17.75;3.20;;;;;;;;;;5116445;27;20095;-77
2022/10/07 14:18:21;;;;;;;13.73;3.80;;;;;;;;;;5103190;27;20373;-79
2022/10/07 14:20:50;;;;;;;14.98;3.40;;;;;;;;;;5136254;27;20046;-78
2022/10/07 14:23:20;;;;;;;12.55;3.20;;;;;;;;;;5130723;27;20050;-80
2022/10/07 14:25:46;;;;;;;14.00;3.08;;;;;;;;;;5117178;27;20118;-78
2022/10/07 14:28:26;;;;;;;14.30;2.95;;;;;;;;;;5116723;27;20506;-70
2022/10/07 14:37:01;;;;;;;13.00;2.10;;;;;;;;;;5134674;27;20429;-71
2022/10/07 14:39:44;;;;;;;11.65;2.35;;;;;;;;;;5105956;28;20097;-71
2022/10/07 14:42:37;;;;;;;14.88;2.40;;;;;;;;;;5116237;27;20035;-71
2022/10/07 14:45:07;;;;;;;16.95;3.20;;;;;;;;;;5122567;27;20072;-71
2022/10/07 14:47:33;;;;;;;13.40;3.58;;;;;;;;;;5116005;27;20047;-71
2022/10/07 14:50:00;;;;;;;9.55;3.30;;;;;;;;;;5116284;27;20096;-71
2022/10/07 14:52:30;;;;;;;15.98;3.90;;;;;;;;;;5117066;27;20035;-77
2022/10/07 14:54:57;;;;;;;17.50;3.90;;;;;;;;;;5116857;27;20089;-78
2022/10/07 14:57:24;;;;;;;18.85;4.45;;;;;;;;;;5116040;27;20046;-77
2022/10/07 14:59:50;;;;;;;18.67;4.60;;;;;;;;;;5133912;27;20043;-77